createdAt,value
2023-12-26T00:01:59.094Z,0.85
2023-12-26T00:04:30.705Z,1.27
2023-12-26T00:06:59.586Z,1.00
2023-12-26T00:09:28.381Z,1.23
2023-12-26T00:11:56.914Z,1.20
2023-12-26T00:14:25.607Z,0.90
2023-12-26T00:16:54.378Z,1.42
2023-12-26T00:19:24.656Z,1.55
2023-12-26T00:21:53.129Z,1.58
2023-12-26T00:24:21.769Z,1.85
2023-12-26T00:26:50.493Z,2.33
2023-12-26T00:29:19.061Z,1.80
2023-12-26T00:31:47.814Z,2.70
2023-12-26T00:34:16.705Z,3.17
2023-12-26T00:36:46.656Z,3.03
2023-12-26T00:39:15.841Z,2.85
2023-12-26T00:41:44.506Z,2.45
2023-12-26T00:44:13.250Z,2.78
2023-12-26T00:46:41.758Z,2.83
2023-12-26T00:49:10.209Z,2.90
2023-12-26T00:51:38.958Z,3.05
2023-12-26T00:54:08.796Z,3.35
2023-12-26T00:56:37.585Z,3.65
2023-12-26T00:59:06.385Z,3.78
2023-12-26T01:01:34.855Z,4.07
2023-12-26T01:04:03.801Z,4.18
2023-12-26T01:06:32.343Z,3.92
2023-12-26T01:09:00.879Z,4.22
2023-12-26T01:11:30.855Z,3.42
2023-12-26T01:13:59.426Z,2.95
2023-12-26T01:16:28.976Z,3.28
2023-12-26T01:18:57.998Z,3.03
2023-12-26T01:21:26.580Z,3.55
2023-12-26T01:23:56.607Z,3.92
2023-12-26T01:26:25.782Z,4.47
2023-12-26T01:28:56.464Z,3.95
2023-12-26T01:31:24.979Z,4.95
2023-12-26T01:33:55.157Z,5.65
2023-12-26T01:36:23.898Z,5.95
2023-12-26T01:38:52.859Z,5.05
2023-12-26T01:41:22.367Z,4.20
2023-12-26T01:43:51.008Z,3.70
2023-12-26T01:46:21.997Z,3.47
2023-12-26T01:48:53.186Z,4.07
2023-12-26T01:51:23.886Z,3.85
2023-12-26T01:53:52.570Z,4.93
2023-12-26T01:56:22.877Z,4.95
2023-12-26T01:58:52.141Z,4.45
2023-12-26T02:01:22.733Z,5.80
2023-12-26T02:03:51.230Z,4.25
2023-12-26T02:06:19.849Z,5.45
2023-12-26T02:08:49.094Z,4.57
2023-12-26T02:11:17.695Z,4.57
2023-12-26T02:13:46.457Z,4.90
2023-12-26T02:16:19.959Z,4.25
2023-12-26T02:18:50.296Z,5.18
2023-12-26T02:21:18.890Z,5.28
2023-12-26T02:23:48.165Z,4.97
2023-12-26T02:26:18.537Z,4.13
2023-12-26T02:28:47.441Z,5.90
2023-12-26T02:31:16.661Z,5.57
2023-12-26T02:33:46.514Z,4.35
2023-12-26T02:36:15.174Z,6.28
2023-12-26T02:38:44.274Z,5.60
2023-12-26T02:41:12.858Z,5.55
2023-12-26T02:43:42.854Z,6.13
2023-12-26T02:46:11.367Z,5.93
2023-12-26T02:48:39.990Z,6.03
2023-12-26T02:51:09.509Z,4.73
2023-12-26T02:53:38.259Z,4.75
2023-12-26T02:56:07.067Z,5.47
2023-12-26T02:58:35.944Z,4.88
2023-12-26T03:01:05.973Z,5.97
2023-12-26T03:03:34.515Z,5.27
2023-12-26T03:06:03.252Z,4.97
2023-12-26T03:08:31.828Z,6.50
2023-12-26T03:11:00.421Z,5.20
2023-12-26T03:13:29.125Z,5.37
2023-12-26T03:15:57.735Z,5.13
2023-12-26T03:18:27.953Z,6.73
2023-12-26T03:20:57.038Z,5.83
2023-12-26T03:23:25.715Z,5.50
2023-12-26T03:25:54.171Z,5.87
2023-12-26T03:28:22.844Z,6.33
2023-12-26T03:30:51.441Z,5.60
2023-12-26T03:33:20.199Z,5.87
2023-12-26T03:35:50.229Z,6.30
2023-12-26T03:38:19.067Z,5.70
2023-12-26T03:40:47.713Z,4.93
2023-12-26T03:43:17.756Z,4.40
2023-12-26T03:45:47.351Z,4.23
2023-12-26T03:48:16.091Z,4.67
2023-12-26T03:50:45.046Z,3.70
2023-12-26T03:53:15.083Z,4.60
2023-12-26T03:55:43.633Z,4.30
2023-12-26T03:58:12.697Z,4.43
2023-12-26T04:00:41.193Z,4.13
2023-12-26T04:03:09.848Z,3.97
2023-12-26T04:05:38.702Z,4.70
2023-12-26T04:08:07.507Z,3.07
2023-12-26T04:10:37.559Z,3.03
2023-12-26T04:13:06.388Z,3.10
2023-12-26T04:15:35.158Z,2.83
2023-12-26T04:18:04.540Z,3.00
2023-12-26T04:20:33.266Z,2.50
2023-12-26T04:23:01.865Z,2.90
2023-12-26T04:25:30.372Z,3.13
2023-12-26T04:28:00.375Z,2.87
2023-12-26T04:30:29.180Z,3.27
2023-12-26T04:32:58.201Z,2.80
2023-12-26T04:35:26.888Z,3.40
2023-12-26T04:37:55.708Z,2.50
2023-12-26T04:40:24.671Z,2.47
2023-12-26T04:42:53.398Z,3.40
2023-12-26T04:45:23.464Z,3.07
2023-12-26T04:47:52.086Z,2.73
2023-12-26T04:50:20.635Z,2.53
2023-12-26T04:52:49.204Z,2.67
2023-12-26T04:55:17.641Z,2.70
2023-12-26T04:57:46.375Z,3.03
2023-12-26T05:00:16.364Z,2.10
2023-12-26T05:02:46.556Z,2.30
2023-12-26T05:05:15.071Z,2.60
2023-12-26T05:07:43.678Z,2.20
2023-12-26T05:10:12.405Z,1.90
2023-12-26T05:12:40.964Z,2.63
2023-12-26T05:15:10.142Z,2.67
2023-12-26T05:17:38.805Z,3.10
2023-12-26T05:20:20.946Z,2.93
2023-12-26T05:22:55.346Z,2.53
2023-12-26T05:25:26.126Z,2.80
2023-12-26T05:27:55.078Z,2.50
2023-12-26T05:30:23.652Z,2.33
2023-12-26T05:32:52.639Z,2.97
2023-12-26T05:35:22.628Z,2.67
2023-12-26T05:37:51.222Z,2.87
2023-12-26T05:40:20.505Z,2.60
2023-12-26T05:42:50.041Z,2.70
2023-12-26T05:45:19.373Z,2.83
2023-12-26T05:47:48.086Z,2.37
2023-12-26T05:50:16.977Z,2.73
2023-12-26T05:52:46.695Z,2.67
2023-12-26T05:55:15.255Z,2.30
2023-12-26T05:57:43.786Z,2.30
2023-12-26T06:00:13.608Z,2.40
2023-12-26T06:02:42.107Z,2.47
2023-12-26T06:05:10.818Z,2.60
2023-12-26T06:07:39.397Z,2.17
2023-12-26T06:10:09.888Z,1.63
2023-12-26T06:12:38.415Z,2.30
2023-12-26T06:15:07.326Z,2.63
2023-12-26T06:17:38.033Z,2.30
2023-12-26T06:20:07.934Z,2.00
2023-12-26T06:22:36.564Z,1.90
2023-12-26T06:25:05.384Z,1.90
2023-12-26T06:27:35.077Z,2.37
2023-12-26T06:30:03.478Z,2.83
2023-12-26T06:32:32.227Z,2.70
2023-12-26T06:35:01.970Z,3.03
2023-12-26T06:37:32.056Z,2.30
2023-12-26T06:40:00.990Z,2.70
2023-12-26T06:42:29.496Z,2.73
2023-12-26T06:44:59.307Z,2.83
2023-12-26T06:47:27.826Z,2.77
2023-12-26T06:49:56.391Z,2.10
2023-12-26T06:52:24.989Z,2.90
2023-12-26T06:54:53.481Z,2.30
2023-12-26T06:57:22.064Z,2.43
2023-12-26T06:59:53.315Z,2.37
2023-12-26T07:02:23.116Z,3.80
2023-12-26T07:04:51.609Z,3.63
2023-12-26T07:07:20.217Z,2.70
2023-12-26T07:09:48.813Z,2.60
2023-12-26T07:12:18.249Z,3.33
2023-12-26T07:14:47.001Z,2.80
2023-12-26T07:17:15.615Z,2.80
2023-12-26T07:19:45.673Z,3.00
2023-12-26T07:22:14.279Z,3.23
2023-12-26T07:24:42.793Z,2.60
2023-12-26T07:27:11.377Z,2.67
2023-12-26T07:29:39.939Z,2.33
2023-12-26T07:32:08.682Z,2.57
2023-12-26T07:34:37.323Z,2.33
2023-12-26T07:37:08.360Z,2.73
2023-12-26T07:39:37.011Z,2.70
2023-12-26T07:42:05.769Z,3.33
2023-12-26T07:44:34.589Z,2.80
2023-12-26T07:47:03.419Z,3.20
2023-12-26T07:49:32.363Z,2.73
2023-12-26T07:52:01.127Z,2.97
2023-12-26T07:54:30.928Z,2.60
2023-12-26T07:56:59.471Z,2.70
2023-12-26T07:59:28.322Z,3.20
2023-12-26T08:01:56.807Z,3.53
2023-12-26T08:04:25.301Z,2.60
2023-12-26T08:06:53.866Z,3.13
2023-12-26T08:09:22.257Z,2.70
2023-12-26T08:11:51.954Z,2.97
2023-12-26T08:14:20.619Z,2.47
2023-12-26T08:16:49.098Z,3.13
2023-12-26T08:19:20.434Z,3.30
2023-12-26T08:21:49.987Z,3.03
2023-12-26T08:24:18.470Z,3.10
2023-12-26T08:26:47.058Z,2.57
2023-12-26T08:29:16.876Z,3.57
2023-12-26T08:31:45.529Z,3.33
2023-12-26T08:34:14.469Z,2.83
2023-12-26T08:36:43.098Z,2.77
2023-12-26T08:39:11.774Z,3.00
2023-12-26T08:41:40.580Z,2.57
2023-12-26T08:44:09.530Z,2.20
2023-12-26T08:46:40.461Z,2.60
2023-12-26T08:49:09.384Z,2.70
2023-12-26T08:51:40.545Z,3.10
2023-12-26T08:54:09.107Z,3.20
2023-12-26T08:56:40.765Z,4.57
2023-12-26T08:59:09.994Z,3.77
2023-12-26T09:01:39.928Z,3.03
2023-12-26T09:04:09.538Z,3.37
2023-12-26T09:06:38.295Z,2.90
2023-12-26T09:09:07.006Z,2.67
2023-12-26T09:11:35.665Z,3.43
2023-12-26T09:14:04.277Z,3.10
2023-12-26T09:16:36.404Z,3.10
2023-12-26T09:19:06.611Z,3.57
2023-12-26T09:21:35.445Z,2.67
2023-12-26T09:24:04.309Z,2.50
2023-12-26T09:26:32.897Z,3.13
2023-12-26T09:29:01.510Z,2.97
2023-12-26T09:31:29.964Z,3.23
2023-12-26T09:33:58.891Z,3.40
2023-12-26T09:36:28.733Z,2.47
2023-12-26T09:38:57.689Z,2.47
2023-12-26T09:41:27.433Z,3.10
2023-12-26T09:43:56.498Z,2.90
2023-12-26T09:46:24.995Z,3.47
2023-12-26T09:48:53.831Z,2.93
2023-12-26T09:51:24.922Z,3.33
2023-12-26T09:53:58.945Z,2.93
2023-12-26T09:56:29.697Z,3.00
2023-12-26T09:58:58.925Z,2.53
2023-12-26T10:01:27.497Z,3.00
2023-12-26T10:03:57.939Z,2.00
2023-12-26T10:06:26.559Z,3.63
2023-12-26T10:08:56.372Z,3.50
2023-12-26T10:11:25.172Z,3.77
2023-12-26T10:13:54.748Z,3.50
2023-12-26T10:16:23.391Z,3.20
2023-12-26T10:18:52.867Z,2.63
2023-12-26T10:21:21.867Z,4.00
2023-12-26T10:23:52.495Z,2.93
2023-12-26T10:26:22.500Z,2.60
2023-12-26T10:28:54.378Z,2.70
2023-12-26T10:31:23.050Z,3.27
2023-12-26T10:36:22.500Z,3.17
2023-12-26T10:38:51.412Z,2.70
2023-12-26T10:41:27.123Z,3.30
2023-12-26T10:44:00.926Z,2.30
2023-12-26T10:46:31.058Z,2.43
2023-12-26T10:49:05.906Z,3.53
2023-12-26T10:51:34.809Z,2.33
2023-12-26T10:54:12.380Z,3.40
2023-12-26T10:56:43.410Z,3.40
2023-12-26T10:59:12.675Z,2.27
2023-12-26T11:02:35.884Z,4.03
2023-12-26T11:05:58.878Z,2.90
2023-12-26T11:09:22.423Z,2.27
2023-12-26T11:12:45.695Z,2.93
2023-12-26T11:16:08.809Z,3.07
2023-12-26T11:19:32.112Z,2.57
2023-12-26T11:22:55.273Z,3.33
2023-12-26T11:26:18.375Z,4.23
2023-12-26T11:29:41.768Z,3.37
2023-12-26T11:33:04.891Z,3.00
2023-12-26T11:36:28.176Z,2.90
2023-12-26T11:39:51.627Z,2.63
2023-12-26T11:43:14.765Z,3.50
2023-12-26T11:46:37.688Z,2.70
2023-12-26T11:50:01.243Z,2.80
2023-12-26T11:53:24.229Z,3.23
2023-12-26T11:56:47.324Z,3.00
2023-12-26T12:00:10.661Z,2.70
2023-12-26T12:03:33.930Z,3.17
2023-12-26T12:06:57.067Z,2.57
2023-12-26T12:10:20.552Z,2.40
2023-12-26T12:13:43.803Z,3.17
2023-12-26T12:17:06.992Z,2.77
2023-12-26T12:20:29.970Z,2.77
2023-12-26T12:23:53.032Z,3.00
2023-12-26T12:27:16.247Z,2.90
2023-12-26T12:30:39.386Z,3.07
2023-12-26T12:34:02.845Z,3.80
2023-12-26T12:37:26.515Z,4.70
2023-12-26T12:40:50.566Z,2.00
2023-12-26T12:44:16.801Z,3.30
2023-12-26T12:47:40.375Z,2.70
2023-12-26T12:51:03.769Z,2.93
2023-12-26T12:54:26.938Z,2.70
2023-12-26T12:57:49.773Z,2.53
2023-12-26T13:01:12.647Z,3.37
2023-12-26T13:04:35.581Z,2.97
2023-12-26T13:07:58.286Z,2.53
2023-12-26T13:11:21.435Z,3.30
2023-12-26T13:14:44.658Z,2.80
2023-12-26T13:18:07.828Z,2.53
2023-12-26T13:21:30.825Z,2.50
2023-12-26T13:24:53.692Z,3.37
2023-12-26T13:28:16.474Z,2.07
2023-12-26T13:31:39.416Z,3.13
2023-12-26T13:35:02.189Z,2.40
2023-12-26T13:38:24.998Z,2.40
2023-12-26T13:41:47.758Z,2.10
2023-12-26T13:45:10.878Z,3.10
2023-12-26T13:48:34.152Z,2.60
2023-12-26T13:51:56.292Z,2.07
2023-12-26T13:55:02.029Z,2.17
2023-12-26T13:58:08.100Z,2.20
2023-12-26T14:01:13.475Z,1.80
2023-12-26T14:04:19.093Z,2.30
2023-12-26T14:07:24.476Z,2.83
2023-12-26T14:10:29.890Z,2.47
2023-12-26T14:13:35.173Z,3.37
2023-12-26T14:16:40.876Z,3.47
2023-12-26T14:19:46.381Z,2.60
2023-12-26T14:22:52.013Z,2.30
2023-12-26T14:25:57.831Z,3.77
2023-12-26T14:29:03.749Z,2.70
2023-12-26T14:32:11.021Z,2.67
2023-12-26T14:35:16.618Z,2.23
2023-12-26T14:38:22.529Z,2.60
2023-12-26T14:41:27.828Z,2.37
2023-12-26T14:44:33.385Z,2.77
2023-12-26T14:47:39.384Z,2.87
2023-12-26T14:50:44.617Z,2.83
2023-12-26T14:53:50.473Z,2.40
2023-12-26T14:56:55.834Z,2.57
2023-12-26T15:00:01.931Z,2.73
2023-12-26T15:02:35.717Z,2.73
2023-12-26T15:05:06.341Z,2.67
2023-12-26T15:07:34.979Z,3.10
2023-12-26T15:10:03.822Z,2.63
2023-12-26T15:12:32.486Z,2.97
2023-12-26T15:15:01.141Z,2.70
2023-12-26T15:17:29.698Z,2.90
2023-12-26T15:19:59.738Z,3.47
2023-12-26T15:22:28.759Z,2.73
2023-12-26T15:24:57.316Z,3.00
2023-12-26T15:27:26.713Z,3.10
2023-12-26T15:29:55.389Z,3.07
2023-12-26T15:32:24.446Z,3.23
2023-12-26T15:34:53.360Z,3.20
2023-12-26T15:37:23.353Z,2.70
2023-12-26T15:39:52.303Z,3.43
2023-12-26T15:42:20.957Z,3.03
2023-12-26T15:44:49.674Z,3.53
2023-12-26T15:47:18.186Z,3.80
2023-12-26T15:49:46.991Z,2.77
2023-12-26T15:52:15.679Z,3.23
2023-12-26T15:54:45.505Z,3.40
2023-12-26T15:57:14.145Z,3.20
2023-12-26T15:59:43.180Z,4.23
2023-12-26T16:02:11.868Z,4.80
2023-12-26T16:04:40.465Z,3.83
2023-12-26T16:07:09.152Z,3.60
2023-12-26T16:09:38.792Z,3.07
2023-12-26T16:12:09.804Z,3.87
2023-12-26T16:14:38.453Z,3.70
2023-12-26T16:17:07.009Z,3.67
2023-12-26T16:19:39.064Z,3.87
2023-12-26T16:22:07.687Z,4.03
2023-12-26T16:24:38.523Z,4.67
2023-12-26T16:27:08.890Z,4.03
2023-12-26T16:29:39.336Z,4.10
2023-12-26T16:32:08.107Z,5.50
2023-12-26T16:34:36.856Z,4.80
2023-12-26T16:37:05.599Z,5.10
2023-12-26T16:39:34.328Z,4.80
2023-12-26T16:42:10.209Z,4.87
2023-12-26T16:44:43.681Z,6.27
2023-12-26T16:47:12.262Z,7.57
2023-12-26T16:49:42.488Z,6.50
2023-12-26T16:52:11.332Z,7.40
2023-12-26T16:54:40.401Z,8.17
2023-12-26T16:57:09.157Z,7.80
2023-12-26T16:59:41.223Z,7.40
2023-12-26T17:02:09.925Z,7.67
2023-12-26T17:04:39.755Z,8.13
2023-12-26T17:07:08.836Z,9.67
2023-12-26T17:09:41.384Z,10.77
2023-12-26T17:12:11.420Z,10.43
2023-12-26T17:14:41.758Z,10.27
2023-12-26T17:17:10.247Z,10.30
2023-12-26T17:19:39.106Z,10.40
2023-12-26T17:22:11.817Z,9.77
2023-12-26T17:24:40.573Z,6.77
2023-12-26T17:27:09.249Z,5.97
2023-12-26T17:29:37.680Z,6.37
2023-12-26T17:32:07.985Z,6.40
2023-12-26T17:34:36.689Z,6.40
2023-12-26T17:37:05.402Z,5.93
2023-12-26T17:39:34.421Z,5.63
2023-12-26T17:42:03.345Z,6.57
2023-12-26T17:44:32.750Z,6.53
2023-12-26T17:47:01.289Z,6.07
2023-12-26T17:49:31.338Z,8.30
2023-12-26T17:52:00.612Z,6.50
2023-12-26T17:54:29.407Z,6.07
2023-12-26T17:56:58.588Z,7.13
2023-12-26T17:59:27.449Z,9.87
2023-12-26T18:01:56.185Z,19.37
2023-12-26T18:04:24.809Z,19.17
2023-12-26T18:06:54.515Z,15.93
2023-12-26T18:09:23.251Z,12.90
2023-12-26T18:11:51.795Z,9.33
2023-12-26T18:14:20.440Z,9.00
2023-12-26T18:16:49.118Z,8.53
2023-12-26T18:19:17.841Z,8.10
2023-12-26T18:21:49.443Z,8.13
2023-12-26T18:24:19.511Z,8.67
2023-12-26T18:26:48.062Z,8.63
2023-12-26T18:29:16.864Z,8.97
2023-12-26T18:31:46.095Z,9.60
2023-12-26T18:34:14.795Z,9.23
2023-12-26T18:36:43.610Z,10.00
2023-12-26T18:39:13.126Z,12.37
2023-12-26T18:41:45.907Z,12.73
2023-12-26T18:44:14.506Z,14.00
2023-12-26T18:46:45.557Z,11.47
2023-12-26T18:49:14.416Z,10.67
2023-12-26T18:51:43.283Z,9.60
2023-12-26T18:54:11.954Z,14.23
2023-12-26T18:56:40.563Z,14.57
2023-12-26T18:59:11.803Z,13.47
2023-12-26T19:01:44.054Z,12.77
2023-12-26T19:04:14.292Z,20.93
2023-12-26T19:06:43.488Z,36.43
2023-12-26T19:09:12.731Z,27.97
2023-12-26T19:11:41.548Z,22.97
2023-12-26T19:14:11.308Z,22.90
2023-12-26T19:16:39.877Z,22.03
2023-12-26T19:19:08.830Z,23.57
2023-12-26T19:21:39.075Z,24.50
2023-12-26T19:24:08.111Z,22.90
2023-12-26T19:26:36.604Z,18.37
2023-12-26T19:29:05.502Z,14.87
2023-12-26T19:31:35.396Z,14.60
2023-12-26T19:34:04.132Z,13.53
2023-12-26T19:36:35.230Z,11.70
2023-12-26T19:39:05.169Z,10.70
2023-12-26T19:41:34.978Z,9.47
2023-12-26T19:44:03.787Z,8.70
2023-12-26T19:46:32.156Z,8.63
2023-12-26T19:49:02.351Z,9.50
2023-12-26T19:51:31.985Z,11.27
2023-12-26T19:54:00.752Z,10.23
2023-12-26T19:56:29.598Z,12.33
2023-12-26T19:58:58.076Z,9.73
2023-12-26T20:01:26.903Z,9.47
2023-12-26T20:03:55.803Z,10.47
2023-12-26T20:06:25.796Z,9.20
2023-12-26T20:08:54.854Z,9.87
2023-12-26T20:11:23.442Z,10.53
2023-12-26T20:13:54.829Z,10.50
2023-12-26T20:16:23.624Z,10.80
2023-12-26T20:18:53.621Z,10.03
2023-12-26T20:21:22.464Z,10.37
2023-12-26T20:23:52.499Z,10.70
2023-12-26T20:26:20.990Z,10.27
2023-12-26T20:28:49.784Z,10.67
2023-12-26T20:31:18.502Z,11.03
2023-12-26T20:33:49.663Z,12.37
2023-12-26T20:36:18.333Z,13.03
2023-12-26T20:38:46.946Z,13.70
2023-12-26T20:41:16.820Z,14.23
2023-12-26T20:43:46.509Z,15.40
2023-12-26T20:46:15.138Z,16.13
2023-12-26T20:48:43.807Z,16.37
2023-12-26T20:51:13.134Z,16.80
2023-12-26T20:53:41.864Z,17.60
2023-12-26T20:56:13.337Z,17.70
2023-12-26T20:58:43.373Z,17.60
2023-12-26T21:01:11.970Z,18.17
2023-12-26T21:03:40.628Z,19.30
2023-12-26T21:06:09.646Z,21.00
2023-12-26T21:08:38.503Z,20.20
2023-12-26T21:11:06.970Z,18.27
2023-12-26T21:13:35.607Z,18.97
2023-12-26T21:16:05.899Z,19.73
2023-12-26T21:18:35.183Z,19.77
2023-12-26T21:21:03.783Z,19.90
2023-12-26T21:23:32.283Z,20.37
2023-12-26T21:26:12.718Z,19.43
2023-12-26T21:28:41.154Z,20.17
2023-12-26T21:31:11.702Z,19.40
2023-12-26T21:33:43.022Z,22.60
2023-12-26T21:36:15.725Z,20.97
2023-12-26T21:38:44.515Z,19.90
2023-12-26T21:41:13.928Z,20.63
2023-12-26T21:43:42.657Z,20.80
2023-12-26T21:46:12.959Z,20.17
2023-12-26T21:48:42.923Z,19.03
2023-12-26T21:51:12.162Z,20.73
2023-12-26T21:53:41.321Z,19.53
2023-12-26T21:56:10.747Z,19.67
2023-12-26T21:58:39.469Z,19.97
2023-12-26T22:01:11.007Z,19.40
2023-12-26T22:03:44.048Z,19.90
2023-12-26T22:06:12.919Z,19.10
2023-12-26T22:08:41.490Z,19.93
2023-12-26T22:11:10.162Z,19.57
2023-12-26T22:13:38.895Z,18.93
2023-12-26T22:16:07.808Z,19.00
2023-12-26T22:18:36.793Z,18.93
2023-12-26T22:21:07.087Z,18.27
2023-12-26T22:23:35.784Z,19.13
2023-12-26T22:26:04.194Z,19.13
2023-12-26T22:28:34.394Z,19.97
2023-12-26T22:31:02.915Z,18.73
2023-12-26T22:33:31.638Z,18.90
2023-12-26T22:36:00.646Z,19.57
2023-12-26T22:38:30.802Z,20.33
2023-12-26T22:40:59.346Z,19.73
2023-12-26T22:43:27.921Z,19.77
2023-12-26T22:45:56.464Z,19.37
2023-12-26T22:48:25.137Z,19.83
2023-12-26T22:50:53.778Z,19.97
2023-12-26T22:53:22.558Z,19.23
2023-12-26T22:55:52.432Z,20.53
2023-12-26T22:58:21.382Z,21.10
2023-12-26T23:00:50.111Z,23.70
2023-12-26T23:03:18.898Z,27.13
2023-12-26T23:05:47.530Z,28.53
2023-12-26T23:08:16.291Z,28.30
2023-12-26T23:10:45.009Z,28.10
2023-12-26T23:13:14.854Z,26.17
2023-12-26T23:15:43.305Z,25.00
2023-12-26T23:18:12.331Z,22.83
2023-12-26T23:20:41.000Z,21.53
2023-12-26T23:23:09.966Z,20.97
2023-12-26T23:25:38.566Z,19.83
2023-12-26T23:28:07.991Z,20.20
2023-12-26T23:30:37.737Z,19.77
2023-12-26T23:33:06.636Z,20.57
2023-12-26T23:35:35.048Z,20.03
2023-12-26T23:38:03.713Z,20.13
2023-12-26T23:40:32.246Z,20.43
2023-12-26T23:43:00.888Z,19.80
2023-12-26T23:45:29.528Z,20.23
2023-12-26T23:48:00.174Z,20.30
2023-12-26T23:50:29.252Z,20.53
2023-12-26T23:53:02.550Z,20.40
2023-12-26T23:55:31.343Z,19.90
2023-12-26T23:58:00.167Z,20.73
